Flight Track Log - Related Links

Times and Time Zones

All times are in EDT time to prevent confusion due to time zone crossing. See the GJS3707 flight status page for this flight to view local times or setup timezone preferences in your user account.

Time Position Orientation Groundspeed Altitude Reporting Facility
EDT Latitude Longitude Course Direction KTS MPH feet Rate Location/Type
Tue 10:51:01 AM 42.0000 -87.9500 270° West 170 196 1,600  Level Chicago TRACON
Tue 10:52:01 AM 42.0000 -88.0167 270° West 204 235 3,300 1,760 Climbing Chicago TRACON
Tue 10:53:48 AM 41.9836 -88.1597 261° West 230 265 6,500 1,941 Climbing Chicago Center
Tue 10:54:00 AM 41.9667 -88.5121 270° West  Level FlightAware Approximate
Tue 10:54:51 AM 41.9769 -88.2619 265° West 275 316 8,800  Level Chicago Center
Tue 10:55:00 AM 41.9668 -88.6651 270° West  Level FlightAware Approximate
Tue 10:55:53 AM 41.9742 -88.3908 268° West 288 331 11,100  Level Chicago Center
Tue 10:56:00 AM 41.9668 -88.8181 270° West  Level FlightAware Approximate
Tue 10:56:55 AM 42.0106 -88.5047 293° West 330 380 12,400  Level Chicago Center
Tue 10:57:57 AM 42.0514 -88.6214 295° West 343 395 14,000 1,597 Climbing Chicago Center
Tue 10:58:59 AM 42.0556 -88.7542 272° West 361 415 15,700 1,645 Climbing Chicago Center
Tue 11:00:01 AM 42.0575 -88.8856 271° West 357 411 17,400 1,403 Climbing Chicago Center
Tue 11:01:03 AM 42.0644 -89.0469 273° West 362 417 18,600 1,161 Climbing Chicago Center
Tue 11:02:05 AM 42.0683 -89.1867 272° West 374 430 19,800 1,210 Climbing Chicago Center
Tue 11:03:07 AM 42.0711 -89.3317 272° West 388 447 21,100 1,258 Climbing Chicago Center
Tue 11:04:09 AM 42.0742 -89.4792 272° West 391 450 22,400 1,161 Climbing Chicago Center
Tue 11:05:11 AM 42.0800 -89.6558 273° West 402 463 23,500 1,210 Climbing Chicago Center
Tue 11:06:13 AM 42.0833 -89.8119 272° West 413 475 24,900 1,161 Climbing Chicago Center
Tue 11:07:15 AM 42.0886 -89.9411 273° West 410 472 25,900 1,113 Climbing Chicago Center
Tue 11:08:17 AM 42.0947 -90.1286 273° West 418 481 27,200 1,065 Climbing Chicago Center
Tue 11:09:19 AM 42.1008 -90.2867 273° West 424 488 28,100 823 Climbing Chicago Center
Tue 11:10:21 AM 42.1089 -90.4481 274° West 432 497 28,900 823 Climbing Chicago Center
Tue 11:11:23 AM 42.1164 -90.6117 274° West 439 505 29,800 823 Climbing Chicago Center
Tue 11:12:25 AM 42.1242 -90.7781 274° West 446 513 30,600 823 Climbing Chicago Center
Tue 11:13:27 AM 42.1358 -90.9831 274° West 458 527 31,500 823 Climbing Chicago Center
Tue 11:14:29 AM 42.1442 -91.1553 274° West 461 531 32,300 823 Climbing Chicago Center
Tue 11:15:31 AM 42.1550 -91.3269 275° West 461 531 33,200 774 Climbing Chicago Center
Tue 11:16:33 AM 42.1678 -91.4983 276° West 460 529 33,900 683 Climbing Chicago Center
Tue 11:17:34 AM 42.2253 -91.6517 297° West 459 528 34,600 683 Climbing Chicago Center
Tue 11:18:36 AM 42.3008 -91.7933 306° West 464 534 35,300 677 Climbing Chicago Center
Tue 11:19:38 AM 42.3911 -91.9633 306° West 463 533 36,000 339 Climbing Chicago Center
Tue 11:20:40 AM 42.4644 -92.1031 305° West 457 526 36,000  Level Chicago Center
Tue 11:21:42 AM 42.5369 -92.2414 305° West 452 520 36,000  Level Chicago Center
Tue 11:22:44 AM 42.6067 -92.3756 305° West 439 505 36,000  Level Chicago Center
Tue 11:23:46 AM 42.6778 -92.5128 305° West 443 510 36,000  Level Chicago Center
Tue 11:24:48 AM 42.7497 -92.6536 305° West 454 522 36,000  Level Chicago Center
Tue 11:25:50 AM 42.8383 -92.8242 305° West 462 532 36,000  Level Chicago Center
Tue 11:26:46 AM 42.8969 -92.9422 304° West 461 531 36,000  Level Minneapolis Center
Tue 11:27:48 AM 42.9836 -93.1117 305° West 463 533 36,000  Level Minneapolis Center
Tue 11:28:50 AM 43.0542 -93.2536 304° West 458 527 36,000  Level Minneapolis Center
Tue 11:29:52 AM 43.1103 -93.4056 297° West 452 520 36,000  Level Minneapolis Center
Tue 11:30:54 AM 43.1356 -93.5717 282° West 451 519 36,000  Level Minneapolis Center
Tue 11:31:56 AM 43.1639 -93.7319 284° West 440 506 36,000  Level Minneapolis Center
Tue 11:32:58 AM 43.1972 -93.9239 283° West 436 502 36,000  Level Minneapolis Center
Tue 11:34:01 AM 43.2244 -94.0825 283° West 434 499 36,000  Level Minneapolis Center
Tue 11:35:03 AM 43.2508 -94.2386 283° West 428 493 36,000  Level Minneapolis Center
Tue 11:36:05 AM 43.2794 -94.4031 283° West 423 487 36,000  Level Minneapolis Center
Tue 11:37:07 AM 43.3050 -94.5628 282° West 428 493 36,000  Level Minneapolis Center
Tue 11:38:09 AM 43.3325 -94.7253 283° West 435 501 36,000  Level Minneapolis Center
Tue 11:39:11 AM 43.3597 -94.8919 283° West 444 511 36,000  Level Minneapolis Center
Tue 11:40:13 AM 43.3914 -95.0914 282° West 446 513 36,000  Level Minneapolis Center
Tue 11:41:15 AM 43.4189 -95.2575 283° West 446 513 36,000  Level Minneapolis Center
Tue 11:42:17 AM 43.4450 -95.4219 282° West 443 510 36,000  Level Minneapolis Center
Tue 11:43:19 AM 43.4697 -95.5819 282° West 433 498 36,000  Level Minneapolis Center
Tue 11:44:21 AM 43.4947 -95.7414 282° West 428 493 36,000  Level Minneapolis Center
Tue 11:45:23 AM 43.5189 -95.8975 282° West 421 484 36,000  Level Minneapolis Center
Tue 11:46:25 AM 43.5478 -96.0883 282° West 421 484 36,000  Level Minneapolis Center
Tue 11:47:27 AM 43.5725 -96.2508 282° West 426 490 36,000  Level Minneapolis Center
Tue 11:48:30 AM 43.5964 -96.4178 281° West 436 502 36,000  Level Minneapolis Center
Tue 11:49:32 AM 43.6197 -96.5856 281° West 440 506 36,000  Level Minneapolis Center
Tue 11:50:34 AM 43.6444 -96.7506 282° West 440 506 36,000  Level Minneapolis Center
Tue 11:51:36 AM 43.6611 -96.9156 278° West 437 503 36,000  Level Minneapolis Center
Tue 11:52:38 AM 43.6731 -97.0797 276° West 432 497 36,000  Level Minneapolis Center
Tue 11:53:40 AM 43.6875 -97.2775 276° West 431 496 36,000  Level Minneapolis Center
Tue 11:54:42 AM 43.6989 -97.4411 276° West 429 494 36,000  Level Minneapolis Center
Tue 11:55:44 AM 43.7117 -97.6050 276° West 429 494 36,000  Level Minneapolis Center
Tue 11:56:46 AM 43.7239 -97.7675 276° West 427 491 36,000  Level Minneapolis Center
Tue 11:58:00 AM 43.7332 -97.9614 274° West  Level FlightAware Approximate
Tue 11:58:50 AM 43.7472 -98.0911 274° West 424 488 36,000  Level Minneapolis Center
Tue 11:59:52 AM 43.7608 -98.2844 276° West 422 486 36,000  Level Minneapolis Center
Tue 12:00:54 PM 43.7706 -98.4458 275° West 421 484 36,000  Level Minneapolis Center
Tue 12:01:56 PM 43.7819 -98.6058 276° West 420 483 36,000  Level Minneapolis Center
Tue 12:02:59 PM 43.7911 -98.7650 275° West 417 480 36,000  Level Minneapolis Center
Tue 12:04:01 PM 43.8017 -98.9256 275° West 416 479 36,000  Level Minneapolis Center
Tue 12:05:03 PM 43.8119 -99.0906 275° West 424 488 36,000  Level Minneapolis Center
Tue 12:06:05 PM 43.8228 -99.2969 274° West 441 507 36,000  Level Minneapolis Center
Tue 12:07:07 PM 43.8314 -99.4686 274° West 444 511 36,000  Level Minneapolis Center
Tue 12:08:09 PM 43.8414 -99.6381 275° West 442 509 36,000  Level Minneapolis Center
Tue 12:09:11 PM 43.8494 -99.8086 274° West 443 510 36,000  Level Minneapolis Center
Tue 12:10:13 PM 43.8597 -99.9786 275° West 443 510 36,000  Level Minneapolis Center
Tue 12:11:15 PM 43.8681 -100.1475 274° West 439 505 36,000  Level Minneapolis Center
Tue 12:12:17 PM 43.8761 -100.3125 274° West 435 501 36,000  Level Minneapolis Center
Tue 12:13:19 PM 43.8858 -100.5122 274° West 433 498 36,000  Level Minneapolis Center
Tue 12:14:21 PM 43.8922 -100.6769 273° West 431 496 36,000  Level Minneapolis Center
Tue 12:15:23 PM 43.9000 -100.8433 274° West 430 495 36,000  Level Minneapolis Center
Tue 12:16:25 PM 43.9072 -101.0108 273° West 431 496 36,000  Level Minneapolis Center
Tue 12:17:28 PM 43.9150 -101.1808 274° West 435 501 36,000  Level Minneapolis Center
Tue 12:18:30 PM 43.9214 -101.3486 273° West 436 502 36,000  Level Minneapolis Center
Tue 12:19:32 PM 43.9278 -101.5142 273° West 433 498 36,000  Level Minneapolis Center
Tue 12:20:34 PM 43.9344 -101.7131 273° West 432 497 36,000  Level Minneapolis Center
Tue 12:21:36 PM 43.9408 -101.8803 273° West 432 497 36,000  Level Minneapolis Center
Tue 12:22:47 PM 43.9464 -102.0753 272° West 426 490 36,000  Level Denver Center
Tue 12:23:50 PM 43.9522 -102.2419 273° West 430 495 36,000  Level Denver Center
Tue 12:24:52 PM 43.9592 -102.4047 273° West 426 490 36,000  Level Denver Center
Tue 12:25:54 PM 43.9644 -102.5661 273° West 422 486 36,000  Level Denver Center
Tue 12:26:56 PM 43.9689 -102.7272 272° West 419 482 36,000  Level Denver Center
Tue 12:27:58 PM 43.9750 -102.9047 273° West 423 487 36,000  Level Denver Center
Tue 12:29:00 PM 43.9786 -103.0872 272° West 425 489 36,000  Level Denver Center
Tue 12:30:02 PM 43.9822 -103.2469 272° West 430 495 36,000  Level Denver Center
Tue 12:31:04 PM 43.9861 -103.4331 272° West 431 496 36,000  Level Denver Center
Tue 12:32:06 PM 43.9878 -103.5931 271° West 433 498 36,000  Level Denver Center
Tue 12:33:08 PM 43.9917 -103.7758 272° West 428 493 36,000  Level Denver Center
Tue 12:34:10 PM 43.9947 -103.9311 272° West 424 488 36,000  Level Denver Center
Tue 12:35:12 PM 43.9956 -104.1078 270° West 414 476 36,000  Level Denver Center
Tue 12:36:14 PM 43.9975 -104.2597 271° West 412 474 36,000  Level Denver Center
Tue 12:37:16 PM 43.9992 -104.4339 271° West 409 471 36,000  Level Denver Center
Tue 12:38:18 PM 44.0017 -104.5839 271° West 407 468 36,000  Level Denver Center
Tue 12:39:21 PM 44.0019 -104.7606 270° West 408 470 36,000  Level Denver Center
Tue 12:40:23 PM 44.0028 -104.9136 270° West 411 473 36,000  Level Denver Center
Tue 12:41:25 PM 44.0036 -105.0928 270° West 414 476 36,000  Level Denver Center
Tue 12:42:27 PM 44.0039 -105.2450 270° West 414 476 36,000  Level Denver Center
Tue 12:43:29 PM 44.0042 -105.3981 270° West 414 476 36,000  Level Denver Center
Tue 12:44:31 PM 44.0050 -105.5744 270° West 413 475 36,000  Level Denver Center
Tue 12:45:33 PM 44.0047 -105.7264 270° West 412 474 36,000  Level Denver Center
Tue 12:46:35 PM 44.0042 -105.9019 270° West 410 472 36,000  Level Denver Center
Tue 12:47:37 PM 44.0028 -106.0531 269° West 410 472 36,000  Level Denver Center
Tue 12:48:17 PM 44.0036 -106.1792 271° West 408 470 36,000  Level Salt Lake Center
Tue 12:49:19 PM 44.0031 -106.3286 270° West 407 468 36,000  Level Salt Lake Center
Tue 12:50:21 PM 44.0033 -106.5039 270° West 407 468 36,000  Level Salt Lake Center
Tue 12:51:23 PM 44.0094 -106.6531 273° West 408 470 36,000  Level Salt Lake Center
Tue 12:52:25 PM 44.0161 -106.8011 274° West 405 466 36,000  Level Salt Lake Center
Tue 12:53:27 PM 44.0225 -106.9739 273° West 404 465 36,000  Level Salt Lake Center
Tue 12:54:29 PM 44.0275 -107.1225 273° West 404 465 36,000  Level Salt Lake Center
Tue 12:55:31 PM 44.0328 -107.2967 272° West 405 466 36,000  Level Salt Lake Center
Tue 12:56:33 PM 44.0383 -107.4478 273° West 407 468 36,000  Level Salt Lake Center
Tue 12:57:34 PM 44.0433 -107.6217 272° West 407 468 36,000  Level Salt Lake Center
Tue 12:58:36 PM 44.0481 -107.7714 273° West 407 468 36,000  Level Salt Lake Center
Tue 12:59:39 PM 44.0519 -107.9478 272° West 409 471 36,000  Level Salt Lake Center
Tue 01:00:40 PM 44.0569 -108.0967 273° West 404 465 36,000  Level Salt Lake Center
Tue 01:01:42 PM 44.0608 -108.2731 272° West 408 470 36,000  Level Salt Lake Center
Tue 01:02:44 PM 44.0650 -108.4200 272° West 409 471 36,000  Level Salt Lake Center
Tue 01:03:46 PM 44.0689 -108.5978 272° West 410 472 36,000  Level Salt Lake Center
Tue 01:04:48 PM 44.0706 -108.7489 271° West 409 471 36,000  Level Salt Lake Center
Tue 01:05:50 PM 44.0753 -108.9272 272° West 413 475 36,000  Level Salt Lake Center
Tue 01:06:52 PM 44.0775 -109.0783 271° West 411 473 36,000  Level Salt Lake Center
Tue 01:07:53 PM 44.0803 -109.2536 271° West 406 467 36,000  Level Salt Lake Center
Tue 01:08:55 PM 44.0831 -109.4031 272° West 405 466 36,000  Level Salt Lake Center
Tue 01:09:57 PM 44.0847 -109.5514 271° West 403 464 36,000  Level Salt Lake Center
Tue 01:10:59 PM 44.0869 -109.7231 271° West 398 458 36,000  Level Salt Lake Center
Tue 01:12:01 PM 44.0881 -109.8708 271° West 399 459 36,000  Level Salt Lake Center
Tue 01:13:03 PM 44.0906 -110.0417 271° West 397 457 36,000  Level Salt Lake Center
Tue 01:14:05 PM 44.0919 -110.1875 271° West 395 455 36,000  Level Salt Lake Center
Tue 01:15:07 PM 44.0928 -110.3575 270° West 393 452 36,000  Level Salt Lake Center
Tue 01:16:09 PM 44.0931 -110.5025 270° West 393 452 36,000  Level Salt Lake Center
Tue 01:17:10 PM 44.0936 -110.6736 270° West 395 455 36,000  Level Salt Lake Center
Tue 01:18:12 PM 44.0944 -110.8217 271° West 398 458 36,000  Level Salt Lake Center
Tue 01:19:14 PM 44.0936 -110.9711 270° West 401 461 36,000  Level Salt Lake Center
Tue 01:20:16 PM 44.0936 -111.1450 270° West 402 463 36,000  Level Salt Lake Center
Tue 01:21:19 PM 44.0947 -111.2956 271° West 404 465 36,000  Level Salt Lake Center
Tue 01:22:20 PM 44.0928 -111.4706 269° West 404 465 36,000  Level Salt Lake Center
Tue 01:23:22 PM 44.0922 -111.6231 270° West 408 470 36,000  Level Salt Lake Center
Tue 01:24:24 PM 44.0919 -111.8000 270° West 408 470 36,000  Level Salt Lake Center
Tue 01:25:26 PM 44.0903 -111.9514 269° West 408 470 36,000  Level Salt Lake Center
Tue 01:26:28 PM 44.0892 -112.1022 269° West 407 468 36,000  Level Salt Lake Center
Tue 01:27:30 PM 44.0808 -112.2767 266° West 405 466 36,000  Level Salt Lake Center
Tue 01:28:32 PM 44.0625 -112.4239 260° West 403 464 36,000  Level Salt Lake Center
Tue 01:29:34 PM 44.0447 -112.5967 262° West 404 465 36,000  Level Salt Lake Center
Tue 01:30:36 PM 44.0261 -112.7436 260° West 403 464 36,000  Level Salt Lake Center
Tue 01:31:38 PM 44.0061 -112.9136 261° West 401 461 36,000  Level Salt Lake Center
Tue 01:32:40 PM 43.9892 -113.0603 261° West 402 463 36,000  Level Salt Lake Center
Tue 01:33:42 PM 43.9686 -113.2306 261° West 402 463 36,000  Level Salt Lake Center
Tue 01:34:44 PM 43.9511 -113.3753 261° West 399 459 36,000  Level Salt Lake Center
Tue 01:35:46 PM 43.9331 -113.5203 260° West 397 457 36,000  Level Salt Lake Center
Tue 01:36:48 PM 43.9122 -113.6917 260° West 398 458 36,000  Level Salt Lake Center
Tue 01:37:50 PM 43.8922 -113.8356 259° West 401 461 36,000  Level Salt Lake Center
Tue 01:38:52 PM 43.8733 -113.9947 260° West 388 447 36,000 -435 Level Salt Lake Center
Tue 01:39:00 PM 43.8590 -114.0118 260° West  Level FlightAware Approximate
Tue 01:39:54 PM 43.8506 -114.1633 259° West 398 458 35,100  Level Salt Lake Center
Tue 01:40:56 PM 43.8322 -114.3069 260° West 395 455 34,100 -1,452 Descending Salt Lake Center
Tue 01:41:58 PM 43.8142 -114.4503 260° West 394 453 32,100 -2,419 Descending Salt Lake Center
Tue 01:43:00 PM 43.7928 -114.6161 260° West 390 449 29,100 -2,661 Descending Salt Lake Center
Tue 01:44:02 PM 43.7736 -114.7531 259° West 378 435 26,600 -2,613 Descending Salt Lake Center
Tue 01:45:04 PM 43.7528 -114.9078 259° West 366 421 23,700 -2,468 Descending Salt Lake Center
Tue 01:46:06 PM 43.7347 -115.0353 259° West 352 405 21,500 -2,226 Descending Salt Lake Center
Tue 01:47:08 PM 43.7150 -115.1764 259° West 334 384 19,100 -2,177 Descending Salt Lake Center
Tue 01:48:10 PM 43.6978 -115.2944 259° West 328 377 17,000 -2,129 Descending Salt Lake Center
Tue 01:49:12 PM 43.6803 -115.4286 260° West 320 368 14,700 -2,081 Descending Salt Lake Center
Tue 01:50:14 PM 43.6625 -115.5503 259° West 314 361 12,700 -1,742 Descending Salt Lake Center
Tue 01:51:16 PM 43.6464 -115.6611 259° West 308 354 11,100 -1,355 Descending Salt Lake Center
Tue 01:52:18 PM 43.6253 -115.7725 255° West 294 338 9,900 -1,161 Descending Salt Lake Center
Tue 01:53:20 PM 43.5581 -115.8286 211° Southwest 275 316 8,700 -1,065 Descending Salt Lake Center
Tue 01:54:22 PM 43.5083 -115.8972 225° Southwest 254 292 7,700 -968 Descending Salt Lake Center

Login

Don't have an account? Register now (free) for customized features, flight alerts, and more!